createdAt,value
2018-11-02T00:00:22.779Z,16.70
2018-11-02T00:02:50.850Z,16.70
2018-11-02T00:05:19.185Z,16.60
2018-11-02T00:10:15.365Z,16.80
2018-11-02T00:15:11.444Z,16.80
2018-11-02T00:17:40.542Z,16.80
2018-11-02T00:20:08.847Z,16.90
2018-11-02T00:22:37.089Z,16.80
2018-11-02T00:25:05.473Z,16.80
2018-11-02T00:27:33.680Z,16.80
2018-11-02T00:30:01.968Z,16.80
2018-11-02T00:34:58.064Z,16.80
2018-11-02T00:37:26.332Z,16.80
2018-11-02T00:39:54.629Z,16.80
2018-11-02T00:42:22.870Z,16.80
2018-11-02T00:44:51.250Z,16.90
2018-11-02T00:49:47.294Z,17.00
2018-11-02T00:52:15.601Z,16.90
2018-11-02T00:54:43.870Z,16.80
2018-11-02T00:57:12.167Z,16.80
2018-11-02T01:02:08.317Z,16.90
2018-11-02T01:04:36.554Z,17.00
2018-11-02T01:07:05.682Z,16.80
2018-11-02T01:19:33.099Z,16.90
2018-11-02T01:22:03.338Z,16.80
2018-11-02T01:24:31.533Z,16.80
2018-11-02T01:29:28.477Z,17.00
2018-11-02T01:31:56.995Z,16.90
2018-11-02T01:36:53.748Z,16.80
2018-11-02T01:41:50.147Z,16.70
2018-11-02T01:44:18.455Z,16.60
2018-11-02T01:46:47.294Z,16.70
2018-11-02T01:49:15.408Z,16.80
2018-11-02T01:51:43.638Z,16.80
2018-11-02T01:54:11.992Z,16.70
2018-11-02T02:04:05.085Z,16.80
2018-11-02T02:06:34.974Z,16.90
2018-11-02T02:09:03.856Z,16.80
2018-11-02T02:11:32.369Z,16.70
2018-11-02T02:14:00.603Z,16.60
2018-11-02T02:21:24.644Z,16.50
2018-11-02T02:28:48.656Z,16.40
2018-11-02T02:31:16.871Z,16.50
2018-11-02T02:33:45.149Z,16.60
2018-11-02T02:36:13.450Z,16.60
2018-11-02T02:38:41.790Z,16.70
2018-11-02T02:41:09.984Z,16.70
2018-11-02T02:43:38.287Z,16.70
2018-11-02T02:46:06.564Z,16.50
2018-11-02T02:48:34.882Z,16.50
2018-11-02T02:51:03.137Z,16.40
2018-11-02T02:53:31.458Z,16.40
2018-11-02T03:00:55.413Z,16.30
2018-11-02T03:03:23.642Z,16.30
2018-11-02T03:05:51.992Z,16.30
2018-11-02T03:08:20.187Z,16.20
2018-11-02T03:10:48.715Z,16.20
2018-11-02T03:18:13.702Z,16.10
2018-11-02T03:20:41.983Z,16.00
2018-11-02T03:23:10.320Z,15.90
2018-11-02T03:25:38.523Z,15.80
2018-11-02T03:30:35.605Z,15.80
2018-11-02T03:33:03.875Z,15.80
2018-11-02T03:35:32.905Z,15.80
2018-11-02T03:42:56.851Z,15.60
2018-11-02T03:45:25.162Z,15.50
2018-11-02T03:47:53.441Z,15.60
2018-11-02T03:50:21.869Z,15.60
2018-11-02T03:52:51.277Z,15.80
2018-11-02T03:55:19.856Z,15.70
2018-11-02T03:57:48.341Z,15.70
2018-11-02T04:00:16.506Z,15.60
2018-11-02T04:02:44.737Z,15.60
2018-11-02T04:05:13.053Z,15.50
2018-11-02T04:10:10.152Z,15.40
2018-11-02T04:15:06.658Z,15.50
2018-11-02T04:20:02.721Z,15.50
2018-11-02T04:25:02.528Z,15.50
2018-11-02T04:27:30.779Z,15.50
2018-11-02T04:29:59.072Z,15.40
2018-11-02T04:32:27.353Z,15.40
2018-11-02T04:34:55.690Z,15.40
2018-11-02T04:37:23.874Z,15.50
2018-11-02T04:42:20.924Z,15.50
2018-11-02T04:44:49.112Z,15.50
2018-11-02T04:47:17.488Z,15.50
2018-11-02T04:54:41.431Z,15.60
2018-11-02T04:57:09.743Z,15.70
2018-11-02T04:59:37.969Z,15.70
2018-11-02T05:02:06.420Z,15.60
2018-11-02T05:04:34.506Z,15.60
2018-11-02T05:11:59.753Z,15.70
2018-11-02T05:14:28.135Z,15.80
2018-11-02T05:24:20.308Z,15.70
2018-11-02T05:26:48.592Z,15.70
2018-11-02T05:29:16.865Z,15.70
2018-11-02T05:34:13.002Z,15.50
2018-11-02T05:36:41.313Z,15.50
2018-11-02T05:41:39.052Z,15.30
2018-11-02T05:44:07.370Z,15.30
2018-11-02T05:49:03.994Z,15.40
2018-11-02T05:51:32.285Z,15.40
2018-11-02T05:54:00.516Z,15.40
2018-11-02T05:56:28.765Z,15.40
2018-11-02T05:58:56.972Z,15.40
2018-11-02T06:01:29.550Z,15.50
2018-11-02T06:03:57.600Z,15.50
2018-11-02T06:06:25.989Z,15.50
2018-11-02T06:08:54.232Z,15.70
2018-11-02T06:11:22.456Z,15.60
2018-11-02T06:13:50.838Z,15.60
2018-11-02T06:16:19.034Z,15.70
2018-11-02T06:23:43.105Z,15.70
2018-11-02T06:26:11.288Z,15.80
2018-11-02T06:28:39.612Z,15.90
2018-11-02T06:33:37.370Z,16.00
2018-11-02T06:36:05.806Z,16.00
2018-11-02T06:38:33.937Z,15.80
2018-11-02T06:41:02.298Z,15.80
2018-11-02T06:45:58.313Z,16.00
2018-11-02T06:48:26.622Z,16.00
2018-11-02T06:53:23.739Z,16.10
2018-11-02T06:55:51.839Z,16.20
2018-11-02T07:00:48.029Z,16.30
2018-11-02T07:03:16.390Z,16.40
2018-11-02T07:08:12.579Z,16.40
2018-11-02T07:10:40.708Z,16.50
2018-11-02T07:13:09.346Z,16.60
2018-11-02T07:15:38.626Z,16.70
2018-11-02T07:18:06.720Z,17.40
2018-11-02T07:25:34.858Z,18.70
2018-11-02T07:30:30.996Z,18.80
2018-11-02T07:33:00.170Z,18.90
2018-11-02T07:35:29.245Z,19.40
2018-11-02T07:37:57.422Z,19.80
2018-11-02T07:40:25.817Z,20.50
2018-11-02T07:42:53.972Z,21.10
2018-11-02T07:45:22.335Z,21.50
2018-11-02T07:47:51.585Z,22.40
2018-11-02T07:50:19.726Z,22.70
2018-11-02T07:55:15.822Z,23.10
2018-11-02T07:57:44.090Z,23.20
2018-11-02T08:02:45.358Z,24.20
2018-11-02T08:05:14.453Z,24.70
2018-11-02T08:07:42.692Z,24.80
2018-11-02T08:12:39.029Z,25.50
2018-11-02T08:17:39.077Z,25.80
2018-11-02T08:20:09.690Z,25.60
2018-11-02T08:25:06.866Z,25.70
2018-11-02T08:27:35.220Z,26.30
2018-11-02T08:30:03.654Z,26.70
2018-11-02T08:32:31.896Z,27.00
2018-11-02T08:35:01.108Z,27.40
2018-11-02T08:37:29.200Z,28.00
2018-11-02T08:39:57.514Z,27.60
2018-11-02T08:47:21.464Z,27.70
2018-11-02T08:54:45.469Z,28.50
2018-11-02T08:57:19.712Z,29.20
2018-11-02T08:59:47.894Z,29.90
2018-11-02T09:04:43.880Z,29.80
2018-11-02T09:07:12.153Z,29.30
2018-11-02T09:09:40.413Z,28.80
2018-11-02T09:17:05.534Z,29.10
2018-11-02T09:22:01.831Z,28.20
2018-11-02T09:26:57.985Z,28.60
2018-11-02T09:29:27.065Z,28.00
2018-11-02T09:31:55.336Z,28.30
2018-11-02T09:34:23.663Z,29.30
2018-11-02T09:36:51.945Z,29.90
2018-11-02T09:41:48.118Z,29.30
2018-11-02T09:44:16.306Z,28.70
2018-11-02T09:49:16.796Z,29.50
2018-11-02T09:51:45.079Z,30.10
2018-11-02T09:56:40.970Z,30.50
2018-11-02T09:59:09.365Z,30.60
2018-11-02T10:04:05.433Z,31.20
2018-11-02T10:09:01.649Z,31.10
2018-11-02T10:18:54.613Z,30.80
2018-11-02T10:21:22.937Z,30.80
2018-11-02T10:28:47.070Z,30.30
2018-11-02T10:31:15.370Z,30.10
2018-11-02T10:33:43.637Z,30.00
2018-11-02T10:36:11.836Z,30.10
2018-11-02T10:38:40.397Z,29.70
2018-11-02T10:43:37.670Z,29.80
2018-11-02T10:46:06.228Z,30.00
2018-11-02T10:48:34.329Z,29.90
2018-11-02T10:51:02.633Z,29.10
2018-11-02T10:55:58.766Z,28.70
2018-11-02T10:58:27.100Z,28.60
2018-11-02T11:02:03.527Z,28.70
2018-11-02T11:04:31.602Z,27.80
2018-11-02T11:06:59.900Z,28.10
2018-11-02T11:09:28.171Z,27.90
2018-11-02T11:14:24.718Z,27.30
2018-11-02T11:16:54.462Z,27.20
2018-11-02T11:19:22.966Z,26.90
2018-11-02T11:21:51.201Z,27.20
2018-11-02T11:24:19.446Z,27.00
2018-11-02T11:26:48.561Z,26.90
2018-11-02T11:31:45.618Z,26.60
2018-11-02T11:34:13.948Z,26.60
2018-11-02T11:39:12.434Z,26.60
2018-11-02T11:44:09.548Z,26.40
2018-11-02T11:49:06.902Z,26.40
2018-11-02T11:51:35.024Z,26.50
2018-11-02T11:56:31.266Z,26.50
2018-11-02T12:01:27.353Z,26.20
2018-11-02T12:06:23.442Z,26.00
2018-11-02T12:11:19.522Z,26.30
2018-11-02T12:16:15.692Z,26.00
2018-11-02T12:18:44.157Z,26.00
2018-11-02T12:21:12.274Z,25.80
2018-11-02T12:23:41.370Z,25.90
2018-11-02T12:31:06.573Z,25.70
2018-11-02T12:33:34.852Z,25.50
2018-11-02T12:36:03.736Z,25.50
2018-11-02T12:38:32.705Z,25.70
2018-11-02T12:41:02.213Z,25.80
2018-11-02T12:43:30.444Z,25.80
2018-11-02T12:45:58.656Z,25.50
2018-11-02T12:48:26.973Z,25.20
2018-11-02T12:50:55.247Z,25.10
2018-11-02T12:58:19.349Z,25.00
2018-11-02T13:03:16.602Z,25.00
2018-11-02T13:05:44.912Z,25.10
2018-11-02T13:08:13.985Z,25.00
2018-11-02T13:10:42.317Z,24.80
2018-11-02T13:15:38.514Z,24.50
2018-11-02T13:20:34.570Z,24.20
2018-11-02T13:23:02.901Z,24.10
2018-11-02T13:25:31.266Z,24.10
2018-11-02T13:27:59.417Z,24.20
2018-11-02T13:30:27.696Z,24.00
2018-11-02T13:37:52.109Z,24.00
2018-11-02T13:40:20.405Z,23.90
2018-11-02T13:42:48.656Z,23.80
2018-11-02T13:45:17.744Z,23.60
2018-11-02T13:50:14.074Z,23.60
2018-11-02T13:52:42.795Z,23.80
2018-11-02T13:55:11.830Z,23.60
2018-11-02T14:02:37.800Z,23.40
2018-11-02T14:05:07.253Z,23.60
2018-11-02T14:07:35.506Z,23.50
2018-11-02T14:10:04.349Z,23.50
2018-11-02T14:12:33.009Z,23.40
2018-11-02T14:17:29.513Z,23.20
2018-11-02T14:19:57.690Z,23.00
2018-11-02T14:22:25.941Z,22.90
2018-11-02T14:24:54.260Z,22.80
2018-11-02T14:27:22.520Z,22.80
2018-11-02T14:29:51.640Z,22.80
2018-11-02T14:32:19.890Z,22.90
2018-11-02T14:34:48.149Z,22.70
2018-11-02T14:37:16.467Z,22.50
2018-11-02T14:44:40.824Z,22.10
2018-11-02T14:47:09.648Z,22.00
2018-11-02T14:49:37.829Z,21.80
2018-11-02T14:52:06.169Z,21.80
2018-11-02T15:02:02.153Z,21.40
2018-11-02T15:06:58.198Z,21.30
2018-11-02T15:14:22.705Z,20.80
2018-11-02T15:19:18.760Z,20.70
2018-11-02T15:21:47.038Z,20.50
2018-11-02T15:31:39.336Z,20.30
2018-11-02T15:34:08.045Z,20.20
2018-11-02T15:36:36.277Z,20.10
2018-11-02T15:39:07.984Z,20.20
2018-11-02T15:41:36.617Z,20.00
2018-11-02T15:44:05.316Z,19.90
2018-11-02T15:46:33.585Z,19.90
2018-11-02T15:51:30.117Z,19.60
2018-11-02T15:53:58.353Z,19.50
2018-11-02T15:56:26.636Z,19.40
2018-11-02T15:58:54.970Z,19.30
2018-11-02T16:03:52.647Z,19.10
2018-11-02T16:11:17.892Z,19.10
2018-11-02T16:13:46.601Z,19.00
2018-11-02T16:16:14.849Z,18.90
2018-11-02T16:18:43.098Z,19.00
2018-11-02T16:21:12.281Z,18.80
2018-11-02T16:23:40.550Z,18.80
2018-11-02T16:26:09.000Z,18.90
2018-11-02T16:31:05.311Z,18.70
2018-11-02T16:36:02.322Z,18.80
2018-11-02T16:40:59.691Z,18.60
2018-11-02T16:43:28.111Z,18.50
2018-11-02T16:45:56.721Z,18.50
2018-11-02T16:48:24.873Z,18.50
2018-11-02T16:50:53.230Z,18.30
2018-11-02T16:53:21.442Z,18.20
2018-11-02T16:55:49.767Z,18.00
2018-11-02T16:58:18.041Z,17.90
2018-11-02T17:03:14.141Z,17.70
2018-11-02T17:05:42.428Z,17.60
2018-11-02T17:08:10.764Z,17.70
2018-11-02T17:10:39.136Z,17.50
2018-11-02T17:13:07.237Z,17.30
2018-11-02T17:15:35.541Z,17.30
2018-11-02T17:18:04.025Z,17.30
2018-11-02T17:20:32.099Z,17.20
2018-11-02T17:25:28.317Z,17.10
2018-11-02T17:27:56.479Z,17.00
2018-11-02T17:30:24.803Z,17.00
2018-11-02T17:32:53.100Z,16.90
2018-11-02T17:35:21.674Z,16.90
2018-11-02T17:37:50.032Z,16.80
2018-11-02T17:40:18.460Z,16.90
2018-11-02T17:42:46.652Z,16.90
2018-11-02T17:47:42.978Z,16.70
2018-11-02T17:50:12.153Z,16.70
2018-11-02T17:52:40.564Z,16.60
2018-11-02T17:55:09.996Z,16.50
2018-11-02T17:57:38.303Z,16.40
2018-11-02T18:02:35.210Z,16.40
2018-11-02T18:05:03.519Z,16.30
2018-11-02T18:07:32.706Z,16.40
2018-11-02T18:10:00.898Z,16.40
2018-11-02T18:14:56.988Z,16.20
2018-11-02T18:19:54.779Z,16.40
2018-11-02T18:24:51.377Z,16.30
2018-11-02T18:29:47.524Z,16.00
2018-11-02T18:32:15.808Z,15.90
2018-11-02T18:39:41.377Z,15.90
2018-11-02T18:42:09.679Z,15.90
2018-11-02T18:44:38.008Z,15.80
2018-11-02T18:47:06.290Z,15.70
2018-11-02T18:52:02.493Z,15.70
2018-11-02T18:54:31.093Z,15.60
2018-11-02T18:59:28.021Z,15.20
2018-11-02T19:01:56.352Z,15.20
2018-11-02T19:04:24.608Z,15.00
2018-11-02T19:06:52.840Z,15.00
2018-11-02T19:09:21.199Z,14.90
2018-11-02T19:11:50.676Z,14.80
2018-11-02T19:14:18.935Z,14.80
2018-11-02T19:16:47.228Z,14.80
2018-11-02T19:24:14.511Z,14.80
2018-11-02T19:26:42.744Z,14.60
2018-11-02T19:29:11.073Z,14.70
2018-11-02T19:31:39.300Z,14.70
2018-11-02T19:34:07.798Z,14.60
2018-11-02T19:36:36.101Z,14.50
2018-11-02T19:41:34.166Z,14.50
2018-11-02T19:44:02.340Z,14.50
2018-11-02T19:46:30.685Z,14.40
2018-11-02T19:48:58.944Z,14.30
2018-11-02T19:51:27.217Z,14.20
2018-11-02T19:53:59.160Z,14.10
2018-11-02T19:56:27.502Z,14.20
2018-11-02T19:58:55.774Z,14.20
2018-11-02T20:01:23.996Z,14.30
2018-11-02T20:06:20.116Z,14.20
2018-11-02T20:08:48.379Z,14.00
2018-11-02T20:11:21.856Z,13.90
2018-11-02T20:13:50.351Z,13.80
2018-11-02T20:16:18.551Z,13.80
2018-11-02T20:21:15.966Z,13.80
2018-11-02T20:23:44.167Z,13.80
2018-11-02T20:28:41.615Z,13.90
2018-11-02T20:31:09.932Z,13.70
2018-11-02T20:33:38.176Z,13.60
2018-11-02T20:36:07.589Z,13.50
2018-11-02T20:38:35.868Z,13.60
2018-11-02T20:41:04.169Z,13.70
2018-11-02T20:43:32.461Z,13.50
2018-11-02T20:46:00.747Z,13.50
2018-11-02T20:48:29.012Z,13.50
2018-11-02T20:50:58.140Z,13.50
2018-11-02T20:55:54.213Z,13.50
2018-11-02T20:58:24.551Z,13.30
2018-11-02T21:00:52.789Z,13.30
2018-11-02T21:03:21.103Z,13.30
2018-11-02T21:05:49.594Z,13.20
2018-11-02T21:08:21.749Z,13.20
2018-11-02T21:10:50.164Z,13.20
2018-11-02T21:13:18.337Z,13.20
2018-11-02T21:15:46.663Z,13.10
2018-11-02T21:20:46.872Z,13.20
2018-11-02T21:28:12.490Z,13.20
2018-11-02T21:33:08.624Z,13.20
2018-11-02T21:35:36.886Z,13.20
2018-11-02T21:38:05.679Z,13.20
2018-11-02T21:40:33.826Z,13.30
2018-11-02T21:45:30.018Z,13.10
2018-11-02T21:47:58.544Z,13.10
2018-11-02T21:55:23.105Z,13.00
2018-11-02T21:57:51.518Z,13.10
2018-11-02T22:00:20.829Z,13.00
2018-11-02T22:02:49.995Z,13.00
2018-11-02T22:05:18.005Z,13.10
2018-11-02T22:07:47.488Z,13.20
2018-11-02T22:10:16.049Z,13.20
2018-11-02T22:20:10.987Z,13.00
2018-11-02T22:22:39.687Z,13.00
2018-11-02T22:25:08.988Z,13.10
2018-11-02T22:27:37.180Z,12.90
2018-11-02T22:32:36.628Z,13.10
2018-11-02T22:35:04.930Z,13.10
2018-11-02T22:37:33.624Z,13.10
2018-11-02T22:40:01.916Z,13.20
2018-11-02T22:42:30.159Z,13.10
2018-11-02T22:44:58.493Z,13.00
2018-11-02T22:47:26.769Z,13.10
2018-11-02T22:49:54.970Z,13.00
2018-11-02T22:57:18.947Z,13.00
2018-11-02T22:59:47.315Z,12.90
2018-11-02T23:02:15.509Z,13.00
2018-11-02T23:04:43.792Z,13.00
2018-11-02T23:07:12.064Z,12.90
2018-11-02T23:09:40.436Z,12.90
2018-11-02T23:12:08.629Z,12.80
2018-11-02T23:17:06.092Z,12.70
2018-11-02T23:19:34.377Z,12.80
2018-11-02T23:22:02.590Z,12.70
2018-11-02T23:24:30.853Z,12.70
2018-11-02T23:26:59.148Z,12.70
2018-11-02T23:29:27.448Z,12.70
2018-11-02T23:31:55.708Z,12.70
2018-11-02T23:34:23.911Z,12.80
2018-11-02T23:36:52.182Z,12.80
2018-11-02T23:41:48.396Z,12.80
2018-11-02T23:46:44.471Z,12.70
2018-11-02T23:51:41.035Z,12.90
2018-11-02T23:56:37.191Z,12.80
2018-11-02T23:59:05.625Z,12.80
